sensor_id;sensor_type;location;lat;lon;timestamp;temperature;humidity
9151;DHT22;4610;50.006;7.490;2022-12-18T06:24:18;-12.40;99.90
9151;DHT22;4610;50.006;7.490;2022-12-18T06:46:24;-12.00;99.90
9151;DHT22;4610;50.006;7.490;2022-12-18T06:48:51;-11.80;99.90
9151;DHT22;4610;50.006;7.490;2022-12-18T07:03:39;-11.60;99.90
9151;DHT22;4610;50.006;7.490;2022-12-18T07:13:31;-11.10;99.90
9151;DHT22;4610;50.006;7.490;2022-12-18T07:16:04;-10.90;99.90
9151;DHT22;4610;50.006;7.490;2022-12-18T07:23:29;-11.30;99.90
9151;DHT22;4610;50.006;7.490;2022-12-18T07:26:01;-11.40;99.90
9151;DHT22;4610;50.006;7.490;2022-12-18T07:28:30;-11.40;99.90
9151;DHT22;4610;50.006;7.490;2022-12-18T08:50:00;-7.00;99.90
9151;DHT22;4610;50.006;7.490;2022-12-18T08:54:56;-6.70;99.90
9151;DHT22;4610;50.006;7.490;2022-12-18T08:57:23;-6.40;99.90
9151;DHT22;4610;50.006;7.490;2022-12-18T08:59:50;-6.70;99.90
9151;DHT22;4610;50.006;7.490;2022-12-18T09:04:46;-6.20;99.90
9151;DHT22;4610;50.006;7.490;2022-12-18T09:07:14;-6.00;99.90
9151;DHT22;4610;50.006;7.490;2022-12-18T09:09:42;-5.80;99.90
9151;DHT22;4610;50.006;7.490;2022-12-18T09:56:42;-0.70;99.90
9151;DHT22;4610;50.006;7.490;2022-12-18T09:59:20;-0.50;99.90
9151;DHT22;4610;50.006;7.490;2022-12-18T10:01:47;-0.50;99.90
9151;DHT22;4610;50.006;7.490;2022-12-18T10:04:14;-0.60;99.90
9151;DHT22;4610;50.006;7.490;2022-12-18T10:06:46;-0.70;99.90
9151;DHT22;4610;50.006;7.490;2022-12-18T10:09:23;-0.90;99.90
9151;DHT22;4610;50.006;7.490;2022-12-18T10:11:55;-1.10;99.90
9151;DHT22;4610;50.006;7.490;2022-12-18T10:14:29;-1.10;99.90
9151;DHT22;4610;50.006;7.490;2022-12-18T10:17:00;-1.10;99.90
9151;DHT22;4610;50.006;7.490;2022-12-18T10:19:42;-1.20;99.90
9151;DHT22;4610;50.006;7.490;2022-12-18T10:22:28;-1.20;99.90
9151;DHT22;4610;50.006;7.490;2022-12-18T10:25:02;-1.50;99.90
9151;DHT22;4610;50.006;7.490;2022-12-18T10:27:30;-1.50;99.90
9151;DHT22;4610;50.006;7.490;2022-12-18T10:30:00;-1.40;99.90
9151;DHT22;4610;50.006;7.490;2022-12-18T10:32:30;-1.30;99.90
9151;DHT22;4610;50.006;7.490;2022-12-18T10:34:58;-1.40;99.90
9151;DHT22;4610;50.006;7.490;2022-12-18T10:37:26;-1.50;99.90
9151;DHT22;4610;50.006;7.490;2022-12-18T10:40:09;-1.50;99.90
9151;DHT22;4610;50.006;7.490;2022-12-18T10:42:36;-1.80;99.90
9151;DHT22;4610;50.006;7.490;2022-12-18T10:45:09;-2.10;99.90
9151;DHT22;4610;50.006;7.490;2022-12-18T10:47:37;-2.40;99.90
9151;DHT22;4610;50.006;7.490;2022-12-18T10:50:19;-2.60;99.90
9151;DHT22;4610;50.006;7.490;2022-12-18T10:52:54;-2.70;99.90
9151;DHT22;4610;50.006;7.490;2022-12-18T10:55:21;-2.90;99.90
9151;DHT22;4610;50.006;7.490;2022-12-18T10:57:48;-3.10;99.90
9151;DHT22;4610;50.006;7.490;2022-12-18T11:00:24;-3.10;99.90
9151;DHT22;4610;50.006;7.490;2022-12-18T11:02:51;-3.20;99.90
9151;DHT22;4610;50.006;7.490;2022-12-18T11:05:27;-3.30;99.90
9151;DHT22;4610;50.006;7.490;2022-12-18T11:07:55;-3.10;99.90
9151;DHT22;4610;50.006;7.490;2022-12-18T11:10:25;-3.20;99.90
9151;DHT22;4610;50.006;7.490;2022-12-18T11:12:54;-3.20;99.90
9151;DHT22;4610;50.006;7.490;2022-12-18T11:15:27;-3.30;99.90
9151;DHT22;4610;50.006;7.490;2022-12-18T11:17:56;-3.20;99.90
9151;DHT22;4610;50.006;7.490;2022-12-18T11:20:31;-3.20;99.90
9151;DHT22;4610;50.006;7.490;2022-12-18T11:23:00;-3.00;99.90
9151;DHT22;4610;50.006;7.490;2022-12-18T11:25:31;-2.40;99.90
9151;DHT22;4610;50.006;7.490;2022-12-18T11:28:00;-3.10;99.90
9151;DHT22;4610;50.006;7.490;2022-12-18T11:30:30;-3.10;99.90
9151;DHT22;4610;50.006;7.490;2022-12-18T11:33:02;-3.10;99.90
9151;DHT22;4610;50.006;7.490;2022-12-18T11:35:39;-2.40;99.90
9151;DHT22;4610;50.006;7.490;2022-12-18T11:38:16;-3.00;99.90
9151;DHT22;4610;50.006;7.490;2022-12-18T11:40:47;-3.00;99.90
9151;DHT22;4610;50.006;7.490;2022-12-18T11:43:20;-2.80;99.90
9151;DHT22;4610;50.006;7.490;2022-12-18T11:45:53;-2.80;99.90
9151;DHT22;4610;50.006;7.490;2022-12-18T11:48:23;-2.80;99.90
9151;DHT22;4610;50.006;7.490;2022-12-18T11:50:53;-2.80;99.90
9151;DHT22;4610;50.006;7.490;2022-12-18T11:53:21;-2.90;99.90
9151;DHT22;4610;50.006;7.490;2022-12-18T11:56:00;-3.00;99.90
9151;DHT22;4610;50.006;7.490;2022-12-18T11:58:45;-2.70;99.90
9151;DHT22;4610;50.006;7.490;2022-12-18T12:01:22;-3.10;99.90
9151;DHT22;4610;50.006;7.490;2022-12-18T12:04:17;-3.10;99.90
9151;DHT22;4610;50.006;7.490;2022-12-18T12:06:51;-3.20;99.90
9151;DHT22;4610;50.006;7.490;2022-12-18T12:09:23;-3.30;99.90
9151;DHT22;4610;50.006;7.490;2022-12-18T12:12:04;-3.40;99.90
9151;DHT22;4610;50.006;7.490;2022-12-18T12:14:47;-3.50;99.90
9151;DHT22;4610;50.006;7.490;2022-12-18T12:17:23;-3.60;99.90
9151;DHT22;4610;50.006;7.490;2022-12-18T12:20:01;-3.40;99.90
9151;DHT22;4610;50.006;7.490;2022-12-18T12:22:37;-3.40;99.90
9151;DHT22;4610;50.006;7.490;2022-12-18T12:25:18;-3.40;99.90
9151;DHT22;4610;50.006;7.490;2022-12-18T12:27:53;-3.50;99.90
9151;DHT22;4610;50.006;7.490;2022-12-18T12:30:30;-3.50;99.90
9151;DHT22;4610;50.006;7.490;2022-12-18T12:33:12;-3.30;99.90
9151;DHT22;4610;50.006;7.490;2022-12-18T12:35:46;-3.40;99.90
9151;DHT22;4610;50.006;7.490;2022-12-18T12:38:19;-3.40;99.90
9151;DHT22;4610;50.006;7.490;2022-12-18T12:40:51;-3.40;99.90
9151;DHT22;4610;50.006;7.490;2022-12-18T12:43:27;-3.30;99.90
9151;DHT22;4610;50.006;7.490;2022-12-18T12:45:56;-3.10;99.90
9151;DHT22;4610;50.006;7.490;2022-12-18T12:48:35;-2.40;99.90
9151;DHT22;4610;50.006;7.490;2022-12-18T12:51:10;-1.50;99.90
9151;DHT22;4610;50.006;7.490;2022-12-18T12:53:38;-1.70;99.90
9151;DHT22;4610;50.006;7.490;2022-12-18T12:56:09;-2.10;99.90
9151;DHT22;4610;50.006;7.490;2022-12-18T12:58:48;-2.40;99.90
9151;DHT22;4610;50.006;7.490;2022-12-18T13:01:23;-2.80;99.90
9151;DHT22;4610;50.006;7.490;2022-12-18T13:04:00;-3.00;99.90
9151;DHT22;4610;50.006;7.490;2022-12-18T13:06:35;-2.30;99.90
9151;DHT22;4610;50.006;7.490;2022-12-18T13:09:04;-3.20;99.90
9151;DHT22;4610;50.006;7.490;2022-12-18T13:11:35;-3.10;99.90
9151;DHT22;4610;50.006;7.490;2022-12-18T13:14:23;-3.10;99.90
9151;DHT22;4610;50.006;7.490;2022-12-18T13:16:50;-3.10;99.90
9151;DHT22;4610;50.006;7.490;2022-12-18T13:19:23;-3.10;99.90
9151;DHT22;4610;50.006;7.490;2022-12-18T13:21:54;-3.20;99.90
9151;DHT22;4610;50.006;7.490;2022-12-18T13:24:25;-3.10;99.90
9151;DHT22;4610;50.006;7.490;2022-12-18T13:26:53;-3.40;99.90
9151;DHT22;4610;50.006;7.490;2022-12-18T13:29:41;-3.50;99.90
9151;DHT22;4610;50.006;7.490;2022-12-18T13:32:23;-3.50;99.90
9151;DHT22;4610;50.006;7.490;2022-12-18T13:35:39;-3.60;99.90
9151;DHT22;4610;50.006;7.490;2022-12-18T13:38:21;-3.60;99.90
9151;DHT22;4610;50.006;7.490;2022-12-18T13:40:56;-3.70;99.90
9151;DHT22;4610;50.006;7.490;2022-12-18T13:43:28;-3.60;99.90
9151;DHT22;4610;50.006;7.490;2022-12-18T13:46:05;-3.70;99.90
9151;DHT22;4610;50.006;7.490;2022-12-18T13:48:35;-3.70;99.90
9151;DHT22;4610;50.006;7.490;2022-12-18T13:51:06;-3.80;99.90
9151;DHT22;4610;50.006;7.490;2022-12-18T13:53:38;-3.90;99.90
9151;DHT22;4610;50.006;7.490;2022-12-18T13:56:06;-4.00;99.90
9151;DHT22;4610;50.006;7.490;2022-12-18T13:58:32;-4.10;99.90
9151;DHT22;4610;50.006;7.490;2022-12-18T14:00:59;-4.20;99.90
9151;DHT22;4610;50.006;7.490;2022-12-18T14:03:29;-4.20;99.90
9151;DHT22;4610;50.006;7.490;2022-12-18T14:06:00;-4.30;99.90
9151;DHT22;4610;50.006;7.490;2022-12-18T14:08:33;-4.20;99.90
9151;DHT22;4610;50.006;7.490;2022-12-18T14:11:03;-4.30;99.90
9151;DHT22;4610;50.006;7.490;2022-12-18T14:13:32;-4.20;99.90
9151;DHT22;4610;50.006;7.490;2022-12-18T14:16:04;-4.20;99.90
9151;DHT22;4610;50.006;7.490;2022-12-18T14:18:38;-4.20;99.90
9151;DHT22;4610;50.006;7.490;2022-12-18T14:21:18;-4.20;99.90
9151;DHT22;4610;50.006;7.490;2022-12-18T14:23:46;-3.20;99.90
9151;DHT22;4610;50.006;7.490;2022-12-18T14:26:25;-3.50;99.90
9151;DHT22;4610;50.006;7.490;2022-12-18T14:28:54;-3.70;99.90
9151;DHT22;4610;50.006;7.490;2022-12-18T14:31:23;-3.90;99.90
9151;DHT22;4610;50.006;7.490;2022-12-18T14:33:51;-4.10;99.90
9151;DHT22;4610;50.006;7.490;2022-12-18T14:36:19;-4.20;99.90
9151;DHT22;4610;50.006;7.490;2022-12-18T14:38:51;-4.30;99.90
9151;DHT22;4610;50.006;7.490;2022-12-18T14:41:20;-4.40;99.90
9151;DHT22;4610;50.006;7.490;2022-12-18T14:43:49;-4.50;99.90
9151;DHT22;4610;50.006;7.490;2022-12-18T14:46:32;-4.60;99.90
9151;DHT22;4610;50.006;7.490;2022-12-18T14:49:02;-4.60;99.90
9151;DHT22;4610;50.006;7.490;2022-12-18T14:51:31;-4.60;99.90
9151;DHT22;4610;50.006;7.490;2022-12-18T14:54:01;-4.60;99.90
9151;DHT22;4610;50.006;7.490;2022-12-18T14:56:30;-4.60;99.90
9151;DHT22;4610;50.006;7.490;2022-12-18T14:59:00;-4.70;99.90
9151;DHT22;4610;50.006;7.490;2022-12-18T15:01:31;-4.70;99.90
9151;DHT22;4610;50.006;7.490;2022-12-18T15:03:59;-4.70;99.90
9151;DHT22;4610;50.006;7.490;2022-12-18T15:06:33;-4.70;99.90
9151;DHT22;4610;50.006;7.490;2022-12-18T15:09:04;-4.70;99.90
9151;DHT22;4610;50.006;7.490;2022-12-18T15:11:44;-4.80;99.90
9151;DHT22;4610;50.006;7.490;2022-12-18T15:14:39;-4.80;99.90
9151;DHT22;4610;50.006;7.490;2022-12-18T15:17:15;-4.80;99.90
9151;DHT22;4610;50.006;7.490;2022-12-18T15:19:44;-4.80;99.90
9151;DHT22;4610;50.006;7.490;2022-12-18T15:22:22;-4.70;99.90
9151;DHT22;4610;50.006;7.490;2022-12-18T15:24:52;-4.70;99.90
9151;DHT22;4610;50.006;7.490;2022-12-18T15:27:31;-4.80;99.90
9151;DHT22;4610;50.006;7.490;2022-12-18T15:30:15;-4.80;99.90
9151;DHT22;4610;50.006;7.490;2022-12-18T15:32:44;-4.80;99.90
9151;DHT22;4610;50.006;7.490;2022-12-18T15:35:15;-4.80;99.90
9151;DHT22;4610;50.006;7.490;2022-12-18T15:37:43;-4.70;99.90
9151;DHT22;4610;50.006;7.490;2022-12-18T15:40:14;-4.80;99.90
9151;DHT22;4610;50.006;7.490;2022-12-18T15:42:41;-4.70;99.90
9151;DHT22;4610;50.006;7.490;2022-12-18T15:45:26;-4.90;99.90
9151;DHT22;4610;50.006;7.490;2022-12-18T15:47:53;-4.70;99.90
9151;DHT22;4610;50.006;7.490;2022-12-18T15:50:20;-4.80;99.90
9151;DHT22;4610;50.006;7.490;2022-12-18T15:52:49;-4.80;99.90
9151;DHT22;4610;50.006;7.490;2022-12-18T15:55:19;-4.80;99.90
9151;DHT22;4610;50.006;7.490;2022-12-18T15:58:04;-4.80;99.90
9151;DHT22;4610;50.006;7.490;2022-12-18T16:00:31;-4.80;99.90
9151;DHT22;4610;50.006;7.490;2022-12-18T16:02:59;-4.80;99.90
9151;DHT22;4610;50.006;7.490;2022-12-18T16:05:26;-4.80;99.90
9151;DHT22;4610;50.006;7.490;2022-12-18T16:07:54;-4.80;99.90
9151;DHT22;4610;50.006;7.490;2022-12-18T16:10:24;-4.80;99.90
9151;DHT22;4610;50.006;7.490;2022-12-18T16:12:51;-4.90;99.90
9151;DHT22;4610;50.006;7.490;2022-12-18T16:15:19;-4.90;99.90
9151;DHT22;4610;50.006;7.490;2022-12-18T16:17:46;-4.60;99.90
9151;DHT22;4610;50.006;7.490;2022-12-18T16:20:14;-4.80;99.90
9151;DHT22;4610;50.006;7.490;2022-12-18T16:22:42;-4.80;99.90
9151;DHT22;4610;50.006;7.490;2022-12-18T16:25:18;-4.90;99.90
9151;DHT22;4610;50.006;7.490;2022-12-18T16:27:46;-4.90;99.90
9151;DHT22;4610;50.006;7.490;2022-12-18T16:30:14;-5.00;99.90
9151;DHT22;4610;50.006;7.490;2022-12-18T16:32:43;-5.00;99.90
9151;DHT22;4610;50.006;7.490;2022-12-18T16:35:11;-5.00;99.90
9151;DHT22;4610;50.006;7.490;2022-12-18T16:37:39;-5.00;99.90
9151;DHT22;4610;50.006;7.490;2022-12-18T16:40:10;-5.10;99.90
9151;DHT22;4610;50.006;7.490;2022-12-18T16:42:40;-5.10;99.90
9151;DHT22;4610;50.006;7.490;2022-12-18T16:45:10;-5.10;99.90
9151;DHT22;4610;50.006;7.490;2022-12-18T16:47:39;-5.00;99.90
9151;DHT22;4610;50.006;7.490;2022-12-18T16:50:08;-5.00;99.90
9151;DHT22;4610;50.006;7.490;2022-12-18T16:52:35;-4.90;99.90
9151;DHT22;4610;50.006;7.490;2022-12-18T16:55:02;-4.90;99.90
9151;DHT22;4610;50.006;7.490;2022-12-18T16:57:29;-4.90;99.90
9151;DHT22;4610;50.006;7.490;2022-12-18T16:59:55;-4.90;99.90
9151;DHT22;4610;50.006;7.490;2022-12-18T17:02:25;-4.90;99.90
9151;DHT22;4610;50.006;7.490;2022-12-18T17:04:54;-4.80;99.90
9151;DHT22;4610;50.006;7.490;2022-12-18T17:07:20;-4.70;99.90
9151;DHT22;4610;50.006;7.490;2022-12-18T17:09:47;-4.70;99.90
9151;DHT22;4610;50.006;7.490;2022-12-18T17:12:16;-4.70;99.90
9151;DHT22;4610;50.006;7.490;2022-12-18T17:14:43;-4.60;99.90
9151;DHT22;4610;50.006;7.490;2022-12-18T17:17:09;-4.60;99.90
9151;DHT22;4610;50.006;7.490;2022-12-18T17:19:38;-4.60;99.90
9151;DHT22;4610;50.006;7.490;2022-12-18T17:22:05;-4.60;99.90
9151;DHT22;4610;50.006;7.490;2022-12-18T17:24:32;-4.60;99.90
9151;DHT22;4610;50.006;7.490;2022-12-18T17:26:59;-4.50;99.90
9151;DHT22;4610;50.006;7.490;2022-12-18T17:29:26;-4.60;99.90
9151;DHT22;4610;50.006;7.490;2022-12-18T17:31:52;-4.50;99.90
9151;DHT22;4610;50.006;7.490;2022-12-18T17:34:19;-4.50;99.90
9151;DHT22;4610;50.006;7.490;2022-12-18T17:36:47;-4.50;99.90
9151;DHT22;4610;50.006;7.490;2022-12-18T17:39:17;-4.40;99.90
9151;DHT22;4610;50.006;7.490;2022-12-18T17:41:45;-4.40;99.90
9151;DHT22;4610;50.006;7.490;2022-12-18T17:44:12;-4.40;99.90
9151;DHT22;4610;50.006;7.490;2022-12-18T17:46:38;-4.40;99.90
9151;DHT22;4610;50.006;7.490;2022-12-18T17:49:05;-4.40;99.90
9151;DHT22;4610;50.006;7.490;2022-12-18T17:51:32;-4.50;99.90
9151;DHT22;4610;50.006;7.490;2022-12-18T17:54:00;-4.40;99.90
9151;DHT22;4610;50.006;7.490;2022-12-18T17:56:27;-4.40;99.90
9151;DHT22;4610;50.006;7.490;2022-12-18T17:58:54;-4.40;99.90
9151;DHT22;4610;50.006;7.490;2022-12-18T18:01:22;-4.40;99.90
9151;DHT22;4610;50.006;7.490;2022-12-18T18:03:49;-4.40;99.90
9151;DHT22;4610;50.006;7.490;2022-12-18T18:06:16;-4.40;99.90
9151;DHT22;4610;50.006;7.490;2022-12-18T18:08:43;-4.30;99.90
9151;DHT22;4610;50.006;7.490;2022-12-18T18:11:13;-4.30;99.90
9151;DHT22;4610;50.006;7.490;2022-12-18T18:13:58;-4.30;99.90
9151;DHT22;4610;50.006;7.490;2022-12-18T18:16:32;-4.20;99.90
9151;DHT22;4610;50.006;7.490;2022-12-18T18:19:01;-4.20;99.90
9151;DHT22;4610;50.006;7.490;2022-12-18T18:21:28;-4.20;99.90
9151;DHT22;4610;50.006;7.490;2022-12-18T18:23:58;-4.20;99.90
9151;DHT22;4610;50.006;7.490;2022-12-18T18:26:27;-3.30;99.90
9151;DHT22;4610;50.006;7.490;2022-12-18T18:28:56;-2.60;99.90
9151;DHT22;4610;50.006;7.490;2022-12-18T18:31:28;-2.90;99.90
9151;DHT22;4610;50.006;7.490;2022-12-18T18:33:56;-3.20;99.90
9151;DHT22;4610;50.006;7.490;2022-12-18T18:36:24;-3.30;99.90
9151;DHT22;4610;50.006;7.490;2022-12-18T18:38:51;-3.40;99.90
9151;DHT22;4610;50.006;7.490;2022-12-18T18:41:19;-3.50;99.90
9151;DHT22;4610;50.006;7.490;2022-12-18T18:43:47;-3.60;99.90
9151;DHT22;4610;50.006;7.490;2022-12-18T18:46:15;-3.60;99.90
9151;DHT22;4610;50.006;7.490;2022-12-18T18:48:42;-3.60;99.90
9151;DHT22;4610;50.006;7.490;2022-12-18T18:51:11;-3.60;99.90
9151;DHT22;4610;50.006;7.490;2022-12-18T18:53:40;-3.60;99.90
9151;DHT22;4610;50.006;7.490;2022-12-18T18:56:08;-3.60;99.90
9151;DHT22;4610;50.006;7.490;2022-12-18T18:58:36;-3.60;99.90
9151;DHT22;4610;50.006;7.490;2022-12-18T19:01:06;-3.60;99.90
9151;DHT22;4610;50.006;7.490;2022-12-18T19:03:34;-3.60;99.90
9151;DHT22;4610;50.006;7.490;2022-12-18T19:06:02;-3.60;99.90
9151;DHT22;4610;50.006;7.490;2022-12-18T19:08:32;-3.70;99.90
9151;DHT22;4610;50.006;7.490;2022-12-18T19:11:00;-2.70;99.90
9151;DHT22;4610;50.006;7.490;2022-12-18T19:13:30;-2.90;99.90
9151;DHT22;4610;50.006;7.490;2022-12-18T19:16:02;-3.00;99.90
9151;DHT22;4610;50.006;7.490;2022-12-18T19:18:31;-3.20;99.90
9151;DHT22;4610;50.006;7.490;2022-12-18T19:20:59;-3.30;99.90
9151;DHT22;4610;50.006;7.490;2022-12-18T19:23:27;-3.50;99.90
9151;DHT22;4610;50.006;7.490;2022-12-18T19:25:57;-3.50;99.90
9151;DHT22;4610;50.006;7.490;2022-12-18T19:28:24;-3.70;99.90
9151;DHT22;4610;50.006;7.490;2022-12-18T19:30:54;-3.70;99.90
9151;DHT22;4610;50.006;7.490;2022-12-18T19:33:22;-3.70;99.90
9151;DHT22;4610;50.006;7.490;2022-12-18T19:35:51;-3.80;99.90
9151;DHT22;4610;50.006;7.490;2022-12-18T19:38:18;-3.70;99.90
9151;DHT22;4610;50.006;7.490;2022-12-18T19:40:45;-3.70;99.90
9151;DHT22;4610;50.006;7.490;2022-12-18T19:43:12;-3.70;99.90
9151;DHT22;4610;50.006;7.490;2022-12-18T19:45:39;-3.70;99.90
9151;DHT22;4610;50.006;7.490;2022-12-18T19:48:06;-3.60;99.90
9151;DHT22;4610;50.006;7.490;2022-12-18T19:50:34;-3.50;99.90
9151;DHT22;4610;50.006;7.490;2022-12-18T19:53:06;-3.50;99.90
9151;DHT22;4610;50.006;7.490;2022-12-18T19:55:39;-3.50;99.90
9151;DHT22;4610;50.006;7.490;2022-12-18T19:58:06;-3.50;99.90
9151;DHT22;4610;50.006;7.490;2022-12-18T20:00:33;-3.50;99.90
9151;DHT22;4610;50.006;7.490;2022-12-18T20:03:00;-3.50;99.90
9151;DHT22;4610;50.006;7.490;2022-12-18T20:05:27;-3.50;99.90
9151;DHT22;4610;50.006;7.490;2022-12-18T20:07:53;-3.50;99.90
9151;DHT22;4610;50.006;7.490;2022-12-18T20:10:22;-3.50;99.90
9151;DHT22;4610;50.006;7.490;2022-12-18T20:12:48;-3.50;99.90
9151;DHT22;4610;50.006;7.490;2022-12-18T20:15:15;-3.50;99.90
9151;DHT22;4610;50.006;7.490;2022-12-18T20:17:42;-3.40;99.90
9151;DHT22;4610;50.006;7.490;2022-12-18T20:20:09;-3.40;99.90
9151;DHT22;4610;50.006;7.490;2022-12-18T20:22:37;-3.40;99.90
9151;DHT22;4610;50.006;7.490;2022-12-18T20:25:04;-3.40;99.90
9151;DHT22;4610;50.006;7.490;2022-12-18T20:27:32;-3.40;99.90
9151;DHT22;4610;50.006;7.490;2022-12-18T20:29:59;-3.30;99.90
9151;DHT22;4610;50.006;7.490;2022-12-18T20:32:26;-3.30;99.90
9151;DHT22;4610;50.006;7.490;2022-12-18T20:34:53;-3.30;99.90
9151;DHT22;4610;50.006;7.490;2022-12-18T20:37:20;-3.30;99.90
9151;DHT22;4610;50.006;7.490;2022-12-18T20:39:46;-3.30;99.90
9151;DHT22;4610;50.006;7.490;2022-12-18T20:42:13;-3.20;99.90
9151;DHT22;4610;50.006;7.490;2022-12-18T20:44:41;-3.20;99.90
9151;DHT22;4610;50.006;7.490;2022-12-18T20:47:08;-3.20;99.90
9151;DHT22;4610;50.006;7.490;2022-12-18T20:49:35;-3.20;99.90
9151;DHT22;4610;50.006;7.490;2022-12-18T20:52:02;-3.20;99.90
9151;DHT22;4610;50.006;7.490;2022-12-18T20:54:29;-3.30;99.90
9151;DHT22;4610;50.006;7.490;2022-12-18T20:56:56;-3.30;99.90
9151;DHT22;4610;50.006;7.490;2022-12-18T20:59:23;-3.30;99.90
9151;DHT22;4610;50.006;7.490;2022-12-18T21:01:54;-3.30;99.90
9151;DHT22;4610;50.006;7.490;2022-12-18T21:04:22;-3.30;99.90
9151;DHT22;4610;50.006;7.490;2022-12-18T21:06:49;-3.30;99.90
9151;DHT22;4610;50.006;7.490;2022-12-18T21:09:16;-3.30;99.90
9151;DHT22;4610;50.006;7.490;2022-12-18T21:11:43;-3.30;99.90
9151;DHT22;4610;50.006;7.490;2022-12-18T21:14:28;-3.30;99.90
9151;DHT22;4610;50.006;7.490;2022-12-18T21:16:57;-3.20;99.90
9151;DHT22;4610;50.006;7.490;2022-12-18T21:19:26;-3.20;99.90
9151;DHT22;4610;50.006;7.490;2022-12-18T21:21:54;-3.10;99.90
9151;DHT22;4610;50.006;7.490;2022-12-18T21:24:22;-3.00;99.90
9151;DHT22;4610;50.006;7.490;2022-12-18T21:26:49;-2.90;99.90
9151;DHT22;4610;50.006;7.490;2022-12-18T21:29:18;-2.90;99.90
9151;DHT22;4610;50.006;7.490;2022-12-18T21:31:45;-2.70;99.90
9151;DHT22;4610;50.006;7.490;2022-12-18T21:34:16;-2.70;99.90
9151;DHT22;4610;50.006;7.490;2022-12-18T21:36:43;-2.70;99.90
9151;DHT22;4610;50.006;7.490;2022-12-18T21:39:11;-2.70;99.90
9151;DHT22;4610;50.006;7.490;2022-12-18T21:41:37;-2.70;99.90
9151;DHT22;4610;50.006;7.490;2022-12-18T21:44:36;-2.70;99.90
9151;DHT22;4610;50.006;7.490;2022-12-18T21:47:03;-2.60;99.90
9151;DHT22;4610;50.006;7.490;2022-12-18T21:49:32;-2.60;99.90
9151;DHT22;4610;50.006;7.490;2022-12-18T21:52:00;-2.60;99.90
9151;DHT22;4610;50.006;7.490;2022-12-18T21:54:28;-2.50;99.90
9151;DHT22;4610;50.006;7.490;2022-12-18T21:56:56;-2.60;99.90
9151;DHT22;4610;50.006;7.490;2022-12-18T21:59:26;-2.60;99.90
9151;DHT22;4610;50.006;7.490;2022-12-18T22:01:54;-2.60;99.90
9151;DHT22;4610;50.006;7.490;2022-12-18T22:04:21;-2.70;99.90
9151;DHT22;4610;50.006;7.490;2022-12-18T22:06:50;-2.70;99.90
9151;DHT22;4610;50.006;7.490;2022-12-18T22:09:19;-2.70;99.90
9151;DHT22;4610;50.006;7.490;2022-12-18T22:11:47;-2.70;99.90
9151;DHT22;4610;50.006;7.490;2022-12-18T22:14:18;-2.80;99.90
9151;DHT22;4610;50.006;7.490;2022-12-18T22:16:44;-2.70;99.90
9151;DHT22;4610;50.006;7.490;2022-12-18T22:19:11;-2.80;99.90
9151;DHT22;4610;50.006;7.490;2022-12-18T22:21:40;-2.80;99.90
9151;DHT22;4610;50.006;7.490;2022-12-18T22:24:12;-2.80;99.90
9151;DHT22;4610;50.006;7.490;2022-12-18T22:26:39;-2.80;99.90
9151;DHT22;4610;50.006;7.490;2022-12-18T22:29:06;-2.80;99.90
9151;DHT22;4610;50.006;7.490;2022-12-18T22:31:51;-2.80;99.90
9151;DHT22;4610;50.006;7.490;2022-12-18T22:34:18;-2.80;99.90
9151;DHT22;4610;50.006;7.490;2022-12-18T22:36:46;-2.80;99.90
9151;DHT22;4610;50.006;7.490;2022-12-18T22:39:16;-2.90;99.90
9151;DHT22;4610;50.006;7.490;2022-12-18T22:41:43;-2.90;99.90
9151;DHT22;4610;50.006;7.490;2022-12-18T22:44:10;-3.00;99.90
9151;DHT22;4610;50.006;7.490;2022-12-18T22:46:38;-2.90;99.90
9151;DHT22;4610;50.006;7.490;2022-12-18T22:49:06;-3.00;99.90
9151;DHT22;4610;50.006;7.490;2022-12-18T22:51:33;-3.00;99.90
9151;DHT22;4610;50.006;7.490;2022-12-18T22:53:59;-3.00;99.90
9151;DHT22;4610;50.006;7.490;2022-12-18T22:56:28;-3.00;99.90
9151;DHT22;4610;50.006;7.490;2022-12-18T22:58:54;-2.90;99.90
9151;DHT22;4610;50.006;7.490;2022-12-18T23:01:22;-2.90;99.90
9151;DHT22;4610;50.006;7.490;2022-12-18T23:03:50;-2.80;99.90
9151;DHT22;4610;50.006;7.490;2022-12-18T23:06:18;-2.80;99.90
9151;DHT22;4610;50.006;7.490;2022-12-18T23:08:45;-2.80;99.90
9151;DHT22;4610;50.006;7.490;2022-12-18T23:11:13;-2.90;99.90
9151;DHT22;4610;50.006;7.490;2022-12-18T23:13:42;-2.90;99.90
9151;DHT22;4610;50.006;7.490;2022-12-18T23:16:11;-2.80;99.90
9151;DHT22;4610;50.006;7.490;2022-12-18T23:18:38;-2.80;99.90
9151;DHT22;4610;50.006;7.490;2022-12-18T23:21:07;-2.70;99.90
9151;DHT22;4610;50.006;7.490;2022-12-18T23:23:35;-2.80;99.90
9151;DHT22;4610;50.006;7.490;2022-12-18T23:26:04;-2.80;99.90
9151;DHT22;4610;50.006;7.490;2022-12-18T23:28:32;-2.70;99.90
9151;DHT22;4610;50.006;7.490;2022-12-18T23:31:05;-2.70;99.90
9151;DHT22;4610;50.006;7.490;2022-12-18T23:33:33;-2.70;99.90
9151;DHT22;4610;50.006;7.490;2022-12-18T23:36:00;-2.70;99.90
9151;DHT22;4610;50.006;7.490;2022-12-18T23:38:27;-2.60;99.90
9151;DHT22;4610;50.006;7.490;2022-12-18T23:40:55;-2.60;99.90
9151;DHT22;4610;50.006;7.490;2022-12-18T23:43:22;-2.60;99.90
9151;DHT22;4610;50.006;7.490;2022-12-18T23:45:49;-2.50;99.90
9151;DHT22;4610;50.006;7.490;2022-12-18T23:48:17;-2.50;99.90
9151;DHT22;4610;50.006;7.490;2022-12-18T23:50:44;-2.50;99.90
9151;DHT22;4610;50.006;7.490;2022-12-18T23:53:11;-2.50;99.90
9151;DHT22;4610;50.006;7.490;2022-12-18T23:55:38;-2.40;99.90
9151;DHT22;4610;50.006;7.490;2022-12-18T23:58:06;-2.50;99.90
